createdAt,value
2018-12-27T00:01:26.249Z,22.63
2018-12-27T00:03:54.129Z,21.10
2018-12-27T00:06:22.211Z,22.10
2018-12-27T00:08:50.609Z,20.03
2018-12-27T00:11:18.406Z,21.50
2018-12-27T00:13:45.644Z,20.43
2018-12-27T00:16:13.016Z,21.50
2018-12-27T00:18:40.238Z,22.43
2018-12-27T00:21:07.863Z,20.23
2018-12-27T00:23:35.132Z,19.63
2018-12-27T00:26:02.234Z,21.97
2018-12-27T00:28:29.861Z,20.63
2018-12-27T00:30:57.732Z,21.70
2018-12-27T00:33:25.092Z,20.43
2018-12-27T00:35:53.629Z,20.80
2018-12-27T00:38:21.708Z,21.37
2018-12-27T00:40:49.229Z,21.10
2018-12-27T00:43:17.042Z,22.87
2018-12-27T00:45:44.173Z,20.53
2018-12-27T00:48:11.300Z,20.30
2018-12-27T00:50:38.728Z,19.33
2018-12-27T00:53:06.519Z,19.77
2018-12-27T00:55:33.695Z,19.00
2018-12-27T00:58:01.175Z,20.07
2018-12-27T01:00:28.309Z,19.80
2018-12-27T01:02:56.104Z,21.40
2018-12-27T01:05:23.981Z,20.63
2018-12-27T01:07:51.157Z,19.63
2018-12-27T01:10:18.950Z,19.57
2018-12-27T01:12:46.453Z,19.63
2018-12-27T01:15:14.592Z,19.67
2018-12-27T01:17:42.421Z,21.00
2018-12-27T01:20:09.936Z,21.27
2018-12-27T01:22:38.004Z,22.23
2018-12-27T01:25:06.149Z,22.27
2018-12-27T01:27:33.569Z,22.90
2018-12-27T01:30:00.667Z,20.13
2018-12-27T01:32:28.185Z,22.13
2018-12-27T01:34:55.662Z,22.87
2018-12-27T01:37:22.800Z,20.67
2018-12-27T01:39:50.195Z,23.63
2018-12-27T01:42:18.018Z,23.07
2018-12-27T01:44:46.093Z,22.10
2018-12-27T01:47:14.533Z,22.90
2018-12-27T01:49:42.258Z,22.53
2018-12-27T01:52:10.105Z,23.73
2018-12-27T01:54:37.660Z,22.43
2018-12-27T01:57:05.148Z,22.00
2018-12-27T01:59:32.681Z,23.43
2018-12-27T02:02:00.450Z,22.27
2018-12-27T02:04:28.222Z,22.50
2018-12-27T02:06:55.613Z,23.87
2018-12-27T02:09:23.797Z,23.43
2018-12-27T02:11:51.227Z,24.93
2018-12-27T02:14:18.990Z,25.57
2018-12-27T02:17:19.896Z,24.63
2018-12-27T02:19:48.084Z,22.87
2018-12-27T02:22:15.424Z,22.73
2018-12-27T02:24:42.910Z,24.13
2018-12-27T02:27:10.624Z,25.67
2018-12-27T02:29:38.056Z,24.07
2018-12-27T02:32:05.218Z,23.27
2018-12-27T02:34:33.322Z,20.80
2018-12-27T02:37:01.474Z,21.93
2018-12-27T02:39:28.592Z,20.77
2018-12-27T02:41:56.017Z,20.53
2018-12-27T02:44:23.787Z,20.17
2018-12-27T02:46:51.201Z,22.10
2018-12-27T02:49:19.223Z,21.47
2018-12-27T02:51:47.018Z,21.43
2018-12-27T02:54:21.025Z,20.87
2018-12-27T02:56:48.886Z,20.17
2018-12-27T02:59:17.061Z,22.37
2018-12-27T03:01:44.793Z,25.20
2018-12-27T03:04:12.213Z,23.37
2018-12-27T03:06:39.705Z,23.37
2018-12-27T03:09:07.178Z,21.33
2018-12-27T03:11:35.030Z,22.43
2018-12-27T03:14:03.000Z,23.13
2018-12-27T03:16:30.139Z,21.10
2018-12-27T03:18:57.953Z,23.43
2018-12-27T03:21:25.724Z,22.87
2018-12-27T03:23:53.492Z,22.93
2018-12-27T03:26:20.638Z,23.70
2018-12-27T03:28:48.394Z,18.67
2018-12-27T03:31:16.231Z,20.63
2018-12-27T03:33:52.482Z,20.47
2018-12-27T03:36:13.297Z,19.83
2018-12-27T03:38:40.758Z,21.90
2018-12-27T03:41:08.487Z,22.50
2018-12-27T03:43:35.954Z,22.20
2018-12-27T03:46:03.054Z,22.30
2018-12-27T03:48:30.215Z,22.80
2018-12-27T03:50:58.425Z,22.80
2018-12-27T03:53:25.924Z,23.53
2018-12-27T03:55:53.674Z,25.83
2018-12-27T03:58:21.170Z,23.73
2018-12-27T04:00:48.587Z,25.47
2018-12-27T04:03:16.066Z,24.97
2018-12-27T04:05:43.554Z,22.57
2018-12-27T04:08:11.757Z,24.90
2018-12-27T04:10:39.220Z,23.13
2018-12-27T04:13:06.700Z,23.33
2018-12-27T04:15:34.532Z,25.37
2018-12-27T04:18:01.954Z,23.97
2018-12-27T04:20:30.404Z,24.00
2018-12-27T04:22:57.741Z,24.53
2018-12-27T04:25:26.558Z,24.30
2018-12-27T04:27:54.035Z,26.00
2018-12-27T04:30:21.893Z,24.47
2018-12-27T04:32:50.303Z,22.57
2018-12-27T04:35:18.150Z,24.17
2018-12-27T04:37:45.763Z,23.70
2018-12-27T04:40:13.220Z,25.97
2018-12-27T04:42:42.339Z,24.00
2018-12-27T04:45:10.101Z,24.70
2018-12-27T04:47:37.316Z,23.93
2018-12-27T04:50:04.857Z,25.27
2018-12-27T04:52:32.714Z,22.67
2018-12-27T04:55:00.522Z,24.20
2018-12-27T04:57:28.488Z,23.70
2018-12-27T04:59:55.934Z,22.80
2018-12-27T05:02:24.034Z,22.73
2018-12-27T05:04:51.521Z,22.47
2018-12-27T05:07:19.043Z,20.70
2018-12-27T05:09:46.524Z,21.47
2018-12-27T05:12:14.045Z,21.27
2018-12-27T05:14:41.551Z,23.57
2018-12-27T05:17:09.054Z,21.57
2018-12-27T05:19:36.331Z,24.90
2018-12-27T05:22:04.146Z,22.60
2018-12-27T05:24:31.589Z,23.63
2018-12-27T05:26:58.712Z,25.23
2018-12-27T05:29:26.378Z,24.97
2018-12-27T05:31:53.497Z,22.53
2018-12-27T05:34:26.144Z,24.50
2018-12-27T05:36:50.541Z,24.47
2018-12-27T05:39:18.035Z,24.17
2018-12-27T05:41:45.467Z,23.20
2018-12-27T05:44:13.209Z,23.90
2018-12-27T05:46:40.727Z,24.77
2018-12-27T05:49:08.250Z,23.50
2018-12-27T05:51:35.803Z,22.93
2018-12-27T05:54:03.020Z,24.00
2018-12-27T05:56:30.504Z,23.70
2018-12-27T05:58:57.639Z,23.70
2018-12-27T06:01:24.806Z,23.30
2018-12-27T06:03:52.057Z,24.40
2018-12-27T06:06:19.180Z,24.00
2018-12-27T06:08:46.665Z,24.33
2018-12-27T06:11:15.197Z,24.10
2018-12-27T06:13:42.843Z,25.07
2018-12-27T06:16:10.337Z,23.90
2018-12-27T06:18:37.536Z,24.57
2018-12-27T06:21:05.409Z,23.87
2018-12-27T06:23:32.546Z,23.63
2018-12-27T06:25:59.770Z,24.07
2018-12-27T06:28:27.277Z,23.83
2018-12-27T06:30:54.422Z,23.03
2018-12-27T06:33:21.853Z,23.23
2018-12-27T06:35:49.214Z,22.30
2018-12-27T06:38:16.693Z,20.13
2018-12-27T06:40:44.395Z,22.33
2018-12-27T06:43:12.474Z,21.67
2018-12-27T06:45:40.256Z,20.73
2018-12-27T06:48:07.417Z,21.57
2018-12-27T06:50:34.563Z,23.17
2018-12-27T06:53:01.924Z,20.93
2018-12-27T06:55:29.222Z,22.33
2018-12-27T06:57:57.147Z,21.77
2018-12-27T07:00:24.763Z,20.90
2018-12-27T07:02:52.233Z,18.63
2018-12-27T07:05:19.709Z,21.20
2018-12-27T07:07:46.869Z,21.63
2018-12-27T07:10:14.262Z,21.10
2018-12-27T07:12:41.577Z,22.53
2018-12-27T07:15:09.085Z,21.77
2018-12-27T07:17:36.894Z,21.77
2018-12-27T07:20:05.239Z,21.97
2018-12-27T07:22:32.760Z,21.87
2018-12-27T07:25:00.634Z,22.00
2018-12-27T07:27:28.430Z,21.87
2018-12-27T07:29:55.833Z,22.77
2018-12-27T07:32:22.988Z,21.03
2018-12-27T07:34:56.471Z,19.53
2018-12-27T07:37:19.618Z,21.77
2018-12-27T07:39:47.017Z,21.83
2018-12-27T07:42:14.609Z,23.20
2018-12-27T07:44:43.041Z,22.87
2018-12-27T07:47:10.460Z,23.93
2018-12-27T07:49:38.430Z,24.07
2018-12-27T07:52:05.510Z,23.77
2018-12-27T07:54:33.201Z,24.90
2018-12-27T07:57:00.682Z,25.60
2018-12-27T07:59:27.990Z,24.67
2018-12-27T08:01:56.154Z,25.07
2018-12-27T08:04:23.514Z,24.03
2018-12-27T08:06:51.263Z,22.40
2018-12-27T08:09:18.747Z,22.97
2018-12-27T08:11:46.464Z,23.97
2018-12-27T08:14:14.344Z,24.40
2018-12-27T08:16:43.134Z,22.67
2018-12-27T08:19:10.849Z,22.47
2018-12-27T08:21:38.422Z,20.83
2018-12-27T08:24:06.214Z,20.73
2018-12-27T08:26:34.084Z,21.97
2018-12-27T08:29:01.250Z,20.47
2018-12-27T08:31:32.464Z,21.47
2018-12-27T08:33:59.813Z,20.13
2018-12-27T08:36:27.013Z,18.23
2018-12-27T08:38:54.831Z,20.43
2018-12-27T08:41:22.240Z,20.37
2018-12-27T08:43:49.769Z,19.37
2018-12-27T08:46:16.910Z,21.20
2018-12-27T08:48:44.739Z,18.77
2018-12-27T08:51:12.504Z,20.63
2018-12-27T08:53:40.501Z,19.50
2018-12-27T08:56:07.792Z,20.33
2018-12-27T08:58:35.749Z,21.83
2018-12-27T09:01:02.965Z,20.97
2018-12-27T09:03:30.404Z,19.63
2018-12-27T09:05:58.185Z,19.10
2018-12-27T09:08:26.115Z,21.47
2018-12-27T09:10:53.909Z,18.67
2018-12-27T09:13:21.165Z,19.77
2018-12-27T09:15:48.689Z,20.53
2018-12-27T09:18:16.216Z,20.10
2018-12-27T09:20:43.339Z,18.87
2018-12-27T09:23:11.037Z,21.23
2018-12-27T09:25:38.628Z,20.37
2018-12-27T09:28:05.874Z,20.33
2018-12-27T09:30:33.440Z,23.70
2018-12-27T09:33:01.790Z,24.27
2018-12-27T09:35:29.814Z,21.40
2018-12-27T09:37:56.928Z,24.43
2018-12-27T09:40:24.518Z,20.90
2018-12-27T09:42:51.664Z,20.30
2018-12-27T09:45:19.273Z,19.90
2018-12-27T09:47:46.957Z,21.43
2018-12-27T09:50:14.821Z,19.97
2018-12-27T09:52:42.583Z,20.80
2018-12-27T09:55:10.515Z,21.13
2018-12-27T09:57:37.687Z,21.30
2018-12-27T10:00:06.072Z,20.73
2018-12-27T10:02:33.681Z,19.73
2018-12-27T10:05:01.536Z,20.60
2018-12-27T10:07:29.076Z,19.50
2018-12-27T10:09:57.213Z,18.17
2018-12-27T10:12:24.609Z,20.07
2018-12-27T10:14:52.430Z,19.23
2018-12-27T10:17:22.673Z,19.97
2018-12-27T10:19:50.179Z,21.83
2018-12-27T10:22:18.092Z,24.63
2018-12-27T10:24:45.992Z,21.73
2018-12-27T10:27:13.769Z,19.87
2018-12-27T10:29:41.496Z,19.80
2018-12-27T10:32:09.064Z,19.50
2018-12-27T10:34:36.466Z,20.80
2018-12-27T10:37:03.850Z,19.93
2018-12-27T10:39:31.749Z,20.43
2018-12-27T10:41:59.024Z,21.47
2018-12-27T10:44:26.172Z,21.07
2018-12-27T10:46:54.515Z,19.73
2018-12-27T10:49:22.245Z,20.57
2018-12-27T10:51:49.738Z,21.77
2018-12-27T10:54:17.246Z,23.10
2018-12-27T10:56:44.746Z,22.43
2018-12-27T10:59:12.343Z,22.47
2018-12-27T11:01:40.145Z,21.00
2018-12-27T11:04:08.018Z,20.40
2018-12-27T11:06:35.252Z,20.07
2018-12-27T11:09:04.869Z,20.67
2018-12-27T11:11:32.371Z,20.07
2018-12-27T11:13:59.482Z,20.40
2018-12-27T11:16:27.393Z,22.43
2018-12-27T11:18:55.312Z,21.90
2018-12-27T11:21:26.424Z,20.67
2018-12-27T11:23:53.872Z,19.93
2018-12-27T11:26:23.015Z,20.73
2018-12-27T11:28:52.625Z,20.40
2018-12-27T11:31:20.042Z,21.57
2018-12-27T11:33:47.162Z,20.50
2018-12-27T11:36:17.409Z,19.93
2018-12-27T11:38:43.869Z,20.40
2018-12-27T11:41:12.092Z,19.80
2018-12-27T11:43:39.929Z,20.07
2018-12-27T11:46:07.722Z,19.43
2018-12-27T11:48:35.366Z,19.00
2018-12-27T11:51:02.872Z,19.43
2018-12-27T11:53:30.694Z,17.43
2018-12-27T11:55:58.054Z,18.63
2018-12-27T11:58:25.633Z,18.93
2018-12-27T12:00:52.920Z,20.37
2018-12-27T12:03:20.060Z,19.20
2018-12-27T12:05:48.102Z,18.40
2018-12-27T12:08:15.805Z,17.27
2018-12-27T12:10:43.638Z,18.00
2018-12-27T12:13:11.113Z,18.10
2018-12-27T12:15:38.243Z,19.20
2018-12-27T12:18:05.354Z,16.87
2018-12-27T12:20:32.504Z,17.80
2018-12-27T12:23:00.549Z,19.70
2018-12-27T12:25:27.752Z,17.83
2018-12-27T12:27:55.330Z,19.97
2018-12-27T12:30:22.836Z,20.53
2018-12-27T12:32:50.503Z,19.10
2018-12-27T12:35:18.025Z,19.63
2018-12-27T12:37:46.871Z,19.63
2018-12-27T12:40:14.075Z,19.40
2018-12-27T12:42:41.262Z,20.60
2018-12-27T12:45:08.812Z,17.00
2018-12-27T12:47:36.212Z,18.40
2018-12-27T12:50:05.397Z,19.27
2018-12-27T12:52:33.126Z,20.40
2018-12-27T12:55:00.257Z,20.60
2018-12-27T12:57:27.730Z,19.70
2018-12-27T12:59:55.311Z,23.07
2018-12-27T13:02:22.705Z,23.30
2018-12-27T13:04:50.186Z,22.97
2018-12-27T13:07:20.567Z,23.57
2018-12-27T13:09:49.002Z,23.17
2018-12-27T13:12:16.600Z,21.50
2018-12-27T13:14:43.835Z,21.27
2018-12-27T13:17:11.097Z,21.30
2018-12-27T13:19:38.341Z,20.77
2018-12-27T13:22:06.263Z,19.60
2018-12-27T13:24:33.718Z,23.53
2018-12-27T13:27:01.421Z,20.60
2018-12-27T13:29:29.117Z,19.93
2018-12-27T13:31:56.950Z,18.17
2018-12-27T13:34:24.349Z,18.87
2018-12-27T13:36:51.828Z,20.43
2018-12-27T13:39:19.378Z,18.47
2018-12-27T13:41:46.837Z,21.03
2018-12-27T13:44:13.969Z,18.07
2018-12-27T13:46:41.610Z,16.07
2018-12-27T13:49:09.082Z,15.67
2018-12-27T13:51:36.912Z,16.03
2018-12-27T13:54:04.359Z,15.80
2018-12-27T13:56:31.502Z,15.00
2018-12-27T13:58:58.653Z,15.77
2018-12-27T14:01:26.614Z,16.63
2018-12-27T14:03:54.162Z,17.13
2018-12-27T14:06:22.047Z,18.47
2018-12-27T14:08:49.694Z,19.13
2018-12-27T14:11:17.883Z,21.53
2018-12-27T14:13:45.600Z,19.67
2018-12-27T14:16:12.885Z,20.07
2018-12-27T14:18:40.166Z,18.77
2018-12-27T14:21:07.773Z,18.83
2018-12-27T14:23:35.274Z,19.93
2018-12-27T14:26:02.918Z,19.37
2018-12-27T14:28:30.480Z,18.60
2018-12-27T14:30:57.703Z,18.27
2018-12-27T14:33:25.270Z,19.40
2018-12-27T14:35:53.150Z,19.23
2018-12-27T14:38:20.689Z,19.37
2018-12-27T14:40:48.243Z,17.87
2018-12-27T14:43:15.541Z,18.67
2018-12-27T14:45:42.997Z,19.53
2018-12-27T14:48:11.046Z,19.43
2018-12-27T14:50:39.005Z,19.27
2018-12-27T14:53:06.814Z,17.17
2018-12-27T14:55:34.059Z,18.07
2018-12-27T14:58:01.571Z,18.27
2018-12-27T15:00:28.804Z,19.73
2018-12-27T15:02:56.090Z,22.27
2018-12-27T15:05:24.217Z,21.10
2018-12-27T15:07:51.484Z,20.00
2018-12-27T15:10:18.613Z,19.03
2018-12-27T15:12:45.893Z,18.17
2018-12-27T15:15:13.361Z,19.40
2018-12-27T15:17:40.909Z,19.87
2018-12-27T15:20:08.665Z,18.97
2018-12-27T15:22:35.858Z,19.70
2018-12-27T15:25:03.738Z,18.17
2018-12-27T15:27:31.371Z,19.93
2018-12-27T15:29:59.514Z,18.90
2018-12-27T15:32:26.729Z,21.90
2018-12-27T15:34:54.658Z,21.77
2018-12-27T15:37:22.080Z,22.17
2018-12-27T15:39:50.237Z,21.80
2018-12-27T15:42:17.664Z,21.20
2018-12-27T15:44:45.382Z,21.97
2018-12-27T15:47:12.498Z,23.37
2018-12-27T15:49:40.249Z,22.87
2018-12-27T15:52:07.551Z,21.37
2018-12-27T15:54:35.069Z,21.20
2018-12-27T15:57:02.561Z,20.67
2018-12-27T15:59:30.256Z,20.73
2018-12-27T16:01:57.717Z,21.50
2018-12-27T16:04:25.940Z,19.90
2018-12-27T16:06:53.166Z,18.73
2018-12-27T16:09:20.313Z,18.13
2018-12-27T16:11:48.128Z,18.63
2018-12-27T16:14:15.642Z,17.50
2018-12-27T16:16:43.188Z,17.63
2018-12-27T16:19:10.657Z,19.63
2018-12-27T16:21:38.905Z,19.30
2018-12-27T16:24:06.365Z,18.70
2018-12-27T16:26:33.853Z,20.13
2018-12-27T16:29:01.513Z,20.63
2018-12-27T16:31:29.021Z,20.47
2018-12-27T16:33:56.638Z,19.87
2018-12-27T16:36:23.899Z,20.67
2018-12-27T16:38:51.030Z,19.53
2018-12-27T16:41:19.117Z,19.27
2018-12-27T16:43:46.918Z,20.13
2018-12-27T16:46:14.808Z,41.60
2018-12-27T16:48:41.966Z,21.37
2018-12-27T16:51:10.185Z,21.63
2018-12-27T16:53:37.709Z,22.30
2018-12-27T16:56:05.334Z,22.37
2018-12-27T16:58:33.029Z,22.77
2018-12-27T17:01:00.976Z,19.63
2018-12-27T17:03:28.549Z,21.37
2018-12-27T17:05:56.025Z,24.00
2018-12-27T17:08:23.282Z,35.70
2018-12-27T17:10:50.569Z,22.40
2018-12-27T17:13:18.592Z,19.73
2018-12-27T17:15:45.997Z,20.87
2018-12-27T17:18:13.143Z,23.37
2018-12-27T17:20:41.393Z,20.17
2018-12-27T17:23:09.733Z,20.33
2018-12-27T17:25:37.546Z,20.97
2018-12-27T17:28:05.178Z,23.13
2018-12-27T17:30:32.530Z,21.67
2018-12-27T17:32:59.644Z,21.90
2018-12-27T17:35:27.341Z,20.60
2018-12-27T17:37:54.471Z,19.40
2018-12-27T17:40:21.648Z,18.47
2018-12-27T17:42:49.651Z,18.97
2018-12-27T17:45:16.993Z,19.73
2018-12-27T17:47:44.626Z,17.97
2018-12-27T17:50:12.885Z,21.03
2018-12-27T17:52:40.909Z,18.83
2018-12-27T17:55:08.157Z,18.77
2018-12-27T17:57:35.570Z,19.80
2018-12-27T18:00:04.787Z,18.37
2018-12-27T18:02:34.351Z,16.43
2018-12-27T18:05:02.248Z,15.30
2018-12-27T18:07:30.779Z,16.80
2018-12-27T18:09:58.849Z,18.73
2018-12-27T18:12:26.422Z,17.33
2018-12-27T18:15:03.175Z,19.10
2018-12-27T18:17:30.913Z,19.83
2018-12-27T18:19:58.769Z,17.87
2018-12-27T18:22:27.003Z,20.73
2018-12-27T18:24:54.788Z,18.33
2018-12-27T18:27:22.161Z,19.13
2018-12-27T18:29:49.914Z,17.87
2018-12-27T18:32:17.670Z,20.10
2018-12-27T18:34:44.865Z,17.93
2018-12-27T18:37:12.393Z,19.80
2018-12-27T18:39:40.094Z,18.90
2018-12-27T18:42:08.065Z,20.00
2018-12-27T18:44:35.328Z,20.70
2018-12-27T18:47:03.013Z,20.10
2018-12-27T18:49:31.401Z,22.13
2018-12-27T18:51:59.296Z,21.03
2018-12-27T18:54:26.912Z,21.77
2018-12-27T18:56:55.014Z,22.40
2018-12-27T18:59:22.631Z,21.07
2018-12-27T19:01:50.769Z,19.23
2018-12-27T19:04:18.375Z,21.63
2018-12-27T19:06:45.906Z,20.53
2018-12-27T19:09:13.849Z,21.07
2018-12-27T19:13:06.641Z,21.87
2018-12-27T19:15:51.689Z,21.20
2018-12-27T19:18:24.210Z,21.07
2018-12-27T19:21:04.685Z,22.47
2018-12-27T19:23:32.640Z,21.60
2018-12-27T19:26:00.371Z,23.57
2018-12-27T19:28:27.776Z,22.67
2018-12-27T19:30:55.819Z,23.17
2018-12-27T19:33:23.696Z,23.27
2018-12-27T19:35:51.133Z,21.20
2018-12-27T19:38:18.272Z,20.47
2018-12-27T19:40:46.479Z,22.30
2018-12-27T19:43:13.642Z,20.93
2018-12-27T19:45:41.611Z,20.57
2018-12-27T19:48:09.224Z,21.47
2018-12-27T19:50:37.005Z,23.57
2018-12-27T19:53:04.340Z,25.30
2018-12-27T19:55:31.712Z,23.83
2018-12-27T19:57:59.736Z,23.40
2018-12-27T20:00:28.302Z,23.87
2018-12-27T20:02:56.111Z,23.17
2018-12-27T20:05:24.470Z,23.73
2018-12-27T20:07:59.093Z,23.20
2018-12-27T20:10:21.838Z,21.90
2018-12-27T20:12:49.620Z,22.40
2018-12-27T20:15:17.188Z,21.23
2018-12-27T20:17:44.757Z,20.87
2018-12-27T20:20:13.358Z,21.63
2018-12-27T20:22:40.530Z,20.50
2018-12-27T20:25:08.553Z,18.90
2018-12-27T20:27:36.600Z,20.43
2018-12-27T20:30:06.382Z,19.73
2018-12-27T20:32:34.236Z,19.30
2018-12-27T20:35:01.623Z,19.90
2018-12-27T20:37:28.829Z,18.20
2018-12-27T20:39:56.665Z,17.93
2018-12-27T20:42:24.461Z,15.97
2018-12-27T20:44:51.954Z,17.60
2018-12-27T20:47:22.657Z,20.50
2018-12-27T20:49:50.387Z,22.30
2018-12-27T20:52:17.865Z,20.60
2018-12-27T20:54:45.728Z,21.03
2018-12-27T20:57:13.176Z,19.60
2018-12-27T20:59:40.906Z,23.50
2018-12-27T21:02:09.287Z,20.23
2018-12-27T21:04:37.065Z,24.17
2018-12-27T21:07:04.468Z,23.77
2018-12-27T21:09:32.042Z,23.43
2018-12-27T21:11:59.821Z,22.03
2018-12-27T21:14:27.138Z,21.67
2018-12-27T21:16:54.659Z,24.60
2018-12-27T21:19:22.968Z,22.23
2018-12-27T21:21:50.561Z,22.30
2018-12-27T21:24:17.927Z,20.47
2018-12-27T21:26:45.888Z,20.50
2018-12-27T21:29:13.691Z,23.00
2018-12-27T21:31:40.840Z,22.07
2018-12-27T21:34:08.591Z,20.67
2018-12-27T21:36:36.527Z,20.53
2018-12-27T21:39:06.851Z,22.70
2018-12-27T21:41:34.332Z,24.47
2018-12-27T21:44:02.581Z,21.20
2018-12-27T21:46:30.130Z,23.57
2018-12-27T21:48:57.356Z,25.37
2018-12-27T21:51:24.721Z,24.83
2018-12-27T21:53:52.524Z,22.20
2018-12-27T21:56:19.970Z,25.90
2018-12-27T21:58:48.662Z,25.87
2018-12-27T22:01:17.244Z,24.67
2018-12-27T22:03:44.664Z,24.43
2018-12-27T22:06:12.194Z,26.30
2018-12-27T22:08:39.344Z,24.90
2018-12-27T22:11:06.911Z,26.23
2018-12-27T22:13:35.285Z,26.63
2018-12-27T22:16:03.874Z,26.23
2018-12-27T22:18:34.911Z,26.83
2018-12-27T22:21:04.536Z,23.70
2018-12-27T22:23:31.847Z,23.73
2018-12-27T22:25:59.395Z,25.87
2018-12-27T22:28:26.979Z,24.57
2018-12-27T22:30:54.741Z,24.47
2018-12-27T22:33:24.004Z,25.80
2018-12-27T22:35:51.125Z,25.03
2018-12-27T22:38:18.914Z,24.93
2018-12-27T22:40:46.128Z,25.30
2018-12-27T22:43:13.312Z,24.93
2018-12-27T22:45:40.789Z,24.27
2018-12-27T22:48:08.777Z,25.70
2018-12-27T22:50:36.553Z,24.60
2018-12-27T22:53:03.832Z,25.17
2018-12-27T22:55:31.268Z,24.77
2018-12-27T22:57:58.793Z,25.07
2018-12-27T23:00:39.230Z,26.20
2018-12-27T23:03:07.131Z,25.47
2018-12-27T23:05:34.506Z,25.67
2018-12-27T23:08:02.033Z,25.63
2018-12-27T23:10:29.305Z,22.33
2018-12-27T23:12:56.826Z,23.90
2018-12-27T23:15:24.686Z,25.17
2018-12-27T23:17:52.653Z,22.83
2018-12-27T23:20:20.374Z,24.90
2018-12-27T23:22:48.341Z,25.07
2018-12-27T23:25:15.884Z,27.00
2018-12-27T23:27:43.057Z,27.03
2018-12-27T23:30:10.461Z,27.63
2018-12-27T23:32:37.733Z,28.37
2018-12-27T23:35:05.709Z,26.17
2018-12-27T23:37:32.864Z,28.07
2018-12-27T23:40:00.397Z,27.33
2018-12-27T23:42:28.531Z,28.37
2018-12-27T23:44:55.789Z,26.27
2018-12-27T23:47:22.939Z,29.87
2018-12-27T23:49:50.609Z,27.20
2018-12-27T23:52:17.857Z,28.30
2018-12-27T23:54:46.074Z,28.00
2018-12-27T23:57:13.768Z,30.27
2018-12-27T23:59:41.678Z,28.00
